createdAt,value
2019-01-16T00:00:27.177Z,31.93
2019-01-16T00:03:12.744Z,35.35
2019-01-16T00:05:45.140Z,34.27
2019-01-16T00:08:30.994Z,34.13
2019-01-16T00:11:15.055Z,31.75
2019-01-16T00:13:44.952Z,34.83
2019-01-16T00:16:18.086Z,33.42
2019-01-16T00:19:05.365Z,31.05
2019-01-16T00:21:46.291Z,33.30
2019-01-16T00:24:31.465Z,29.50
2019-01-16T00:27:17.042Z,33.00
2019-01-16T00:30:04.131Z,32.50
2019-01-16T00:32:45.879Z,28.50
2019-01-16T00:35:18.180Z,30.65
2019-01-16T00:37:56.538Z,28.50
2019-01-16T00:40:42.413Z,29.90
2019-01-16T00:43:28.941Z,29.82
2019-01-16T00:46:09.845Z,27.60
2019-01-16T00:48:38.892Z,28.57
2019-01-16T00:51:25.825Z,28.77
2019-01-16T00:54:00.692Z,27.40
2019-01-16T00:56:29.756Z,28.65
2019-01-16T00:58:59.195Z,26.55
2019-01-16T01:01:37.300Z,26.42
2019-01-16T01:04:21.351Z,26.42
2019-01-16T01:07:06.949Z,27.58
2019-01-16T01:09:52.743Z,23.27
2019-01-16T01:12:21.791Z,24.27
2019-01-16T01:14:50.861Z,25.95
2019-01-16T01:17:22.918Z,26.30
2019-01-16T01:20:07.080Z,25.30
2019-01-16T01:22:38.687Z,25.70
2019-01-16T01:25:25.970Z,24.98
2019-01-16T01:27:55.124Z,28.00
2019-01-16T01:30:27.180Z,25.57
2019-01-16T01:33:04.722Z,28.35
2019-01-16T01:35:50.100Z,27.35
2019-01-16T01:38:37.224Z,26.12
2019-01-16T01:41:06.336Z,28.25
2019-01-16T01:43:44.119Z,26.65
2019-01-16T01:46:22.066Z,26.75
2019-01-16T01:49:00.101Z,21.95
2019-01-16T01:51:29.161Z,28.25
2019-01-16T01:54:01.336Z,26.82
2019-01-16T01:56:36.415Z,25.45
2019-01-16T01:59:05.642Z,25.90
2019-01-16T02:01:34.685Z,24.10
2019-01-16T02:04:03.794Z,25.80
2019-01-16T02:06:35.779Z,24.07
2019-01-16T02:09:06.401Z,24.72
2019-01-16T02:11:47.286Z,24.55
2019-01-16T02:14:25.730Z,26.62
2019-01-16T02:16:54.793Z,24.40
2019-01-16T02:19:23.841Z,25.68
2019-01-16T02:22:09.353Z,25.43
2019-01-16T02:24:54.775Z,25.57
2019-01-16T02:27:33.187Z,24.77
2019-01-16T02:30:20.669Z,25.60
2019-01-16T02:32:49.731Z,26.42
2019-01-16T02:35:35.246Z,26.50
2019-01-16T02:38:19.426Z,26.90
2019-01-16T02:40:54.154Z,26.42
2019-01-16T02:43:32.033Z,27.60
2019-01-16T02:46:13.069Z,26.20
2019-01-16T02:49:00.261Z,29.10
2019-01-16T02:51:35.225Z,25.20
2019-01-16T02:54:07.125Z,27.27
2019-01-16T02:56:36.201Z,26.30
2019-01-16T02:59:08.906Z,27.60
2019-01-16T03:01:40.634Z,26.93
2019-01-16T03:04:26.029Z,27.30
2019-01-16T03:07:03.931Z,26.30
2019-01-16T03:09:33.000Z,26.05
2019-01-16T03:12:07.758Z,24.98
2019-01-16T03:14:39.395Z,25.17
2019-01-16T03:17:20.323Z,24.85
2019-01-16T03:19:58.369Z,25.95
2019-01-16T03:22:39.223Z,24.45
2019-01-16T03:25:08.441Z,23.18
2019-01-16T03:27:37.520Z,21.42
2019-01-16T03:30:13.909Z,24.43
2019-01-16T03:32:48.674Z,24.75
2019-01-16T03:35:20.429Z,22.75
2019-01-16T03:38:07.571Z,24.05
2019-01-16T03:40:39.323Z,21.80
2019-01-16T03:43:13.958Z,22.75
2019-01-16T03:45:51.974Z,22.87
2019-01-16T03:48:29.618Z,22.50
2019-01-16T03:50:58.714Z,23.05
2019-01-16T03:53:42.578Z,23.83
2019-01-16T03:56:27.938Z,23.25
2019-01-16T03:59:02.958Z,23.25
2019-01-16T04:01:34.961Z,23.32
2019-01-16T04:04:16.255Z,24.25
2019-01-16T04:06:57.322Z,25.97
2019-01-16T04:09:43.150Z,24.07
2019-01-16T04:12:16.484Z,23.67
2019-01-16T04:14:45.616Z,25.12
2019-01-16T04:17:17.392Z,25.50
2019-01-16T04:19:46.414Z,26.37
2019-01-16T04:22:15.593Z,26.95
2019-01-16T04:24:53.523Z,25.92
2019-01-16T04:27:22.589Z,25.43
2019-01-16T04:29:54.053Z,26.52
2019-01-16T04:32:25.849Z,26.55
2019-01-16T04:35:07.170Z,25.72
2019-01-16T04:37:45.294Z,26.87
2019-01-16T04:40:22.825Z,24.90
2019-01-16T04:43:08.571Z,26.48
2019-01-16T04:45:49.438Z,28.12
2019-01-16T04:48:27.278Z,26.37
2019-01-16T04:50:59.093Z,25.90
2019-01-16T04:53:43.164Z,24.57
2019-01-16T04:56:15.194Z,24.45
2019-01-16T04:59:00.723Z,24.57
2019-01-16T05:01:38.893Z,23.25
2019-01-16T05:04:13.825Z,23.18
2019-01-16T05:06:42.891Z,20.77
2019-01-16T05:09:11.943Z,22.80
2019-01-16T05:11:43.861Z,22.73
2019-01-16T05:14:18.907Z,23.83
2019-01-16T05:16:54.101Z,21.87
2019-01-16T05:19:28.853Z,21.40
2019-01-16T05:21:57.941Z,19.15
2019-01-16T05:24:32.808Z,19.87
2019-01-16T05:27:18.518Z,21.48
2019-01-16T05:29:53.827Z,19.80
2019-01-16T05:32:31.599Z,20.40
2019-01-16T05:35:06.863Z,20.12
2019-01-16T05:37:35.933Z,20.15
2019-01-16T05:40:11.844Z,19.80
2019-01-16T05:42:49.527Z,20.57
2019-01-16T05:45:33.681Z,19.15
2019-01-16T05:48:08.529Z,19.98
2019-01-16T05:50:37.629Z,20.30
2019-01-16T05:53:06.785Z,20.00
2019-01-16T05:55:44.799Z,20.88
2019-01-16T05:58:23.007Z,21.80
2019-01-16T06:00:52.057Z,22.22
2019-01-16T06:03:21.102Z,20.65
2019-01-16T06:06:07.927Z,21.48
2019-01-16T06:08:54.617Z,21.33
2019-01-16T06:11:41.341Z,21.62
2019-01-16T06:14:28.036Z,21.12
2019-01-16T06:19:37.285Z,20.75
2019-01-16T06:22:15.647Z,21.23
2019-01-16T06:24:50.616Z,22.25
2019-01-16T06:27:22.541Z,20.20
2019-01-16T06:29:51.840Z,22.35
2019-01-16T06:32:23.842Z,20.32
2019-01-16T06:34:52.998Z,21.25
2019-01-16T06:37:34.269Z,19.85
2019-01-16T06:40:03.350Z,20.52
2019-01-16T06:42:35.430Z,20.25
2019-01-16T06:45:04.734Z,21.35
2019-01-16T06:47:43.366Z,21.23
2019-01-16T06:50:22.484Z,21.73
2019-01-16T06:52:57.655Z,21.17
2019-01-16T06:55:39.125Z,21.10
2019-01-16T06:58:17.635Z,19.75
2019-01-16T07:00:49.176Z,22.30
2019-01-16T07:03:24.266Z,20.60
2019-01-16T07:05:53.382Z,20.37
2019-01-16T07:08:28.044Z,19.90
2019-01-16T07:11:02.875Z,20.80
2019-01-16T07:13:31.978Z,20.50
2019-01-16T07:16:01.584Z,23.57
2019-01-16T07:18:39.396Z,20.62
2019-01-16T07:21:08.526Z,20.20
2019-01-16T07:23:54.121Z,19.10
2019-01-16T07:26:23.214Z,20.25
2019-01-16T07:29:09.157Z,21.65
2019-01-16T07:31:44.294Z,18.87
2019-01-16T07:34:25.037Z,18.75
2019-01-16T07:37:02.758Z,20.57
2019-01-16T07:39:50.192Z,20.12
2019-01-16T07:42:22.277Z,19.37
2019-01-16T07:45:08.055Z,18.52
2019-01-16T07:47:48.849Z,18.27
2019-01-16T07:50:32.967Z,17.35
2019-01-16T07:53:17.262Z,17.20
2019-01-16T07:55:52.177Z,18.77
2019-01-16T07:58:36.522Z,16.67
2019-01-16T08:01:09.080Z,18.50
2019-01-16T08:03:38.147Z,17.17
2019-01-16T08:06:12.841Z,16.87
2019-01-16T08:08:41.925Z,16.60
2019-01-16T08:11:13.796Z,14.30
2019-01-16T08:13:51.879Z,15.38
2019-01-16T08:16:23.973Z,14.43
2019-01-16T08:18:53.068Z,15.45
2019-01-16T08:21:24.861Z,15.70
2019-01-16T08:24:10.070Z,15.25
2019-01-16T08:26:39.154Z,14.45
2019-01-16T08:29:20.381Z,15.25
2019-01-16T08:31:49.496Z,16.25
2019-01-16T08:34:18.952Z,15.43
2019-01-16T08:37:03.415Z,16.30
2019-01-16T08:39:47.170Z,14.15
2019-01-16T08:42:19.074Z,13.93
2019-01-16T08:44:51.216Z,13.43
2019-01-16T08:47:36.795Z,15.85
2019-01-16T08:50:07.402Z,14.87
2019-01-16T08:52:51.447Z,13.53
2019-01-16T08:55:32.330Z,14.38
2019-01-16T08:58:01.414Z,14.93
2019-01-16T09:00:30.518Z,14.70
2019-01-16T09:03:15.989Z,14.85
2019-01-16T09:05:53.743Z,16.12
2019-01-16T09:08:35.061Z,15.30
2019-01-16T09:11:04.118Z,14.10
2019-01-16T09:13:33.211Z,15.03
2019-01-16T09:16:19.070Z,15.28
2019-01-16T09:18:56.950Z,13.68
2019-01-16T09:21:26.117Z,15.40
2019-01-16T09:23:55.201Z,14.00
2019-01-16T09:26:42.219Z,13.85
2019-01-16T09:29:11.300Z,13.30
2019-01-16T09:31:53.751Z,14.53
2019-01-16T09:34:31.123Z,13.55
2019-01-16T09:37:19.690Z,13.88
2019-01-16T09:40:27.969Z,14.40
2019-01-16T09:42:34.750Z,13.80
2019-01-16T09:45:03.834Z,14.10
2019-01-16T09:47:52.587Z,14.80
2019-01-16T09:50:27.482Z,14.10
2019-01-16T09:52:57.405Z,13.45
2019-01-16T09:55:43.190Z,14.60
2019-01-16T09:58:14.710Z,14.70
2019-01-16T10:00:49.083Z,13.00
2019-01-16T10:03:20.971Z,14.85
2019-01-16T10:05:56.386Z,13.43
2019-01-16T10:08:31.539Z,13.00
2019-01-16T10:11:19.358Z,13.72
2019-01-16T10:14:04.785Z,13.75
2019-01-16T10:16:45.506Z,14.80
2019-01-16T10:19:23.589Z,12.78
2019-01-16T10:21:52.671Z,12.58
2019-01-16T10:24:24.710Z,11.80
2019-01-16T10:26:54.063Z,13.25
2019-01-16T10:29:23.265Z,11.40
2019-01-16T10:31:52.666Z,12.10
2019-01-16T10:34:21.817Z,12.68
2019-01-16T10:36:53.624Z,11.85
2019-01-16T10:39:39.347Z,13.05
2019-01-16T10:42:17.190Z,11.43
2019-01-16T10:44:52.074Z,11.20
2019-01-16T10:47:24.012Z,9.30
2019-01-16T10:49:53.063Z,10.15
2019-01-16T10:52:38.891Z,10.55
2019-01-16T10:55:08.456Z,10.25
2019-01-16T10:57:37.563Z,9.68
2019-01-16T11:00:14.556Z,10.20
2019-01-16T11:02:59.159Z,9.68
2019-01-16T11:05:32.565Z,11.08
2019-01-16T11:08:02.231Z,8.98
2019-01-16T11:19:18.997Z,9.95
2019-01-16T11:25:07.564Z,10.13
2019-01-16T11:27:49.190Z,8.70
2019-01-16T11:30:21.581Z,9.05
2019-01-16T11:32:51.490Z,9.75
2019-01-16T11:35:38.670Z,9.00
2019-01-16T11:38:17.539Z,9.03
2019-01-16T11:41:22.362Z,9.48
2019-01-16T11:43:24.986Z,10.38
2019-01-16T11:52:18.476Z,9.70
2019-01-16T11:54:53.665Z,8.35
2019-01-16T11:57:35.309Z,9.15
2019-01-16T12:00:10.151Z,9.25
2019-01-16T12:02:42.155Z,8.50
2019-01-16T12:05:17.923Z,9.90
2019-01-16T12:07:52.963Z,9.53
2019-01-16T12:10:25.347Z,9.50
2019-01-16T12:12:54.460Z,8.58
2019-01-16T12:15:40.083Z,9.20
2019-01-16T12:18:25.359Z,8.90
2019-01-16T12:20:57.079Z,9.68
2019-01-16T12:23:26.244Z,10.18
2019-01-16T12:26:07.903Z,8.28
2019-01-16T12:28:50.349Z,9.33
2019-01-16T12:31:19.862Z,9.10
2019-01-16T12:33:48.993Z,8.90
2019-01-16T12:36:27.404Z,8.65
2019-01-16T12:39:12.533Z,8.40
2019-01-16T12:41:45.124Z,8.15
2019-01-16T12:44:14.624Z,8.90
2019-01-16T12:47:00.238Z,7.40
2019-01-16T12:49:38.166Z,7.70
2019-01-16T12:52:24.201Z,7.85
2019-01-16T12:54:53.361Z,8.13
2019-01-16T12:57:22.453Z,7.75
2019-01-16T12:59:54.791Z,7.78
2019-01-16T13:02:23.864Z,7.25
2019-01-16T13:04:53.472Z,8.03
2019-01-16T13:07:25.757Z,7.15
2019-01-16T13:10:11.318Z,7.90
2019-01-16T13:12:57.529Z,7.00
2019-01-16T13:15:47.158Z,8.03
2019-01-16T13:18:32.482Z,7.10
2019-01-16T13:21:21.599Z,7.42
2019-01-16T13:23:53.577Z,8.10
2019-01-16T13:26:41.019Z,8.28
2019-01-16T13:29:29.611Z,8.08
2019-01-16T13:32:14.958Z,8.50
2019-01-16T13:34:46.454Z,8.68
2019-01-16T13:37:30.532Z,8.53
2019-01-16T13:40:08.727Z,9.28
2019-01-16T13:42:37.787Z,7.87
2019-01-16T13:45:24.097Z,7.10
2019-01-16T13:47:53.594Z,7.75
2019-01-16T13:50:25.363Z,8.60
2019-01-16T13:53:03.350Z,8.13
2019-01-16T13:55:33.211Z,8.15
2019-01-16T13:58:05.001Z,8.80
2019-01-16T14:00:34.191Z,8.63
2019-01-16T14:03:19.557Z,9.50
2019-01-16T14:06:01.292Z,9.20
2019-01-16T14:08:33.116Z,9.30
2019-01-16T14:11:17.610Z,12.25
2019-01-16T14:13:46.750Z,9.28
2019-01-16T14:16:21.658Z,9.45
2019-01-16T14:18:56.802Z,8.95
2019-01-16T14:21:26.283Z,9.75
2019-01-16T14:23:55.341Z,9.80
2019-01-16T14:26:27.398Z,10.90
2019-01-16T14:32:03.953Z,11.38
2019-01-16T14:34:50.801Z,10.15
2019-01-16T14:37:36.193Z,13.40
2019-01-16T14:40:06.294Z,11.45
2019-01-16T14:42:37.856Z,11.22
2019-01-16T14:45:09.159Z,10.53
2019-01-16T14:47:55.864Z,10.48
2019-01-16T14:50:24.999Z,11.10
2019-01-16T14:53:10.958Z,10.40
2019-01-16T14:55:58.219Z,12.37
2019-01-16T14:58:51.387Z,11.65
2019-01-16T15:01:26.243Z,11.03
2019-01-16T15:03:55.440Z,10.93
2019-01-16T15:06:30.453Z,11.20
2019-01-16T15:09:00.140Z,11.22
2019-01-16T15:11:41.238Z,12.50
2019-01-16T15:14:16.083Z,11.03
2019-01-16T15:16:45.213Z,11.90
2019-01-16T15:19:17.085Z,12.25
2019-01-16T15:21:48.901Z,11.45
2019-01-16T15:24:18.062Z,11.43
2019-01-16T15:26:49.949Z,11.88
2019-01-16T15:29:25.455Z,11.08
2019-01-16T15:32:00.549Z,11.68
2019-01-16T15:34:35.526Z,11.83
2019-01-16T15:37:04.980Z,11.43
2019-01-16T15:39:51.432Z,11.20
2019-01-16T15:42:29.451Z,11.28
2019-01-16T15:44:58.675Z,10.80
2019-01-16T15:47:30.263Z,10.70
2019-01-16T15:49:59.906Z,11.38
2019-01-16T15:52:31.762Z,11.20
2019-01-16T15:55:01.055Z,11.80
2019-01-16T15:57:32.569Z,11.50
2019-01-16T16:00:01.650Z,9.83
2019-01-16T16:02:47.002Z,9.95
2019-01-16T16:05:16.274Z,10.40
2019-01-16T16:07:45.465Z,9.65
2019-01-16T16:10:14.771Z,10.85
2019-01-16T16:12:43.939Z,10.65
2019-01-16T16:15:15.725Z,11.10
2019-01-16T16:17:44.906Z,10.13
2019-01-16T16:20:26.010Z,10.58
2019-01-16T16:23:01.363Z,11.55
2019-01-16T16:25:30.371Z,9.83
2019-01-16T16:28:16.355Z,10.85
2019-01-16T16:31:01.914Z,10.60
2019-01-16T16:33:48.223Z,10.65
2019-01-16T16:36:22.103Z,10.82
2019-01-16T16:38:51.418Z,10.93
2019-01-16T16:41:22.102Z,11.55
2019-01-16T16:43:51.241Z,11.40
2019-01-16T16:46:20.342Z,11.40
2019-01-16T16:48:49.780Z,12.88
2019-01-16T16:51:22.489Z,11.33
2019-01-16T16:53:57.426Z,11.90
2019-01-16T16:56:29.436Z,12.15
2019-01-16T16:59:07.450Z,11.22
2019-01-16T17:01:51.737Z,10.60
2019-01-16T17:04:21.730Z,11.83
2019-01-16T17:06:58.288Z,12.05
2019-01-16T17:09:47.027Z,11.15
2019-01-16T17:18:21.727Z,11.60
2019-01-16T17:21:08.821Z,11.48
2019-01-16T17:23:45.374Z,11.18
2019-01-16T17:29:41.223Z,12.05
2019-01-16T17:32:17.039Z,10.95
2019-01-16T17:35:04.993Z,10.43
2019-01-16T17:37:50.765Z,12.30
2019-01-16T17:40:20.740Z,11.43
2019-01-16T17:43:06.184Z,11.70
2019-01-16T17:45:52.880Z,11.22
2019-01-16T17:48:23.154Z,11.85
2019-01-16T17:51:05.758Z,11.28
2019-01-16T17:53:45.469Z,11.63
2019-01-16T17:56:15.050Z,11.63
2019-01-16T18:02:19.593Z,10.48
2019-01-16T18:04:52.087Z,10.03
2019-01-16T18:07:32.904Z,9.70
2019-01-16T18:10:18.720Z,9.00
2019-01-16T18:12:50.924Z,10.00
2019-01-16T18:15:34.372Z,9.98
2019-01-16T18:21:25.420Z,8.70
2019-01-16T18:24:16.307Z,9.18
2019-01-16T18:27:02.786Z,9.43
2019-01-16T18:29:37.884Z,9.70
2019-01-16T18:32:07.629Z,9.83
2019-01-16T18:38:02.559Z,11.08
2019-01-16T18:40:34.166Z,8.90
2019-01-16T18:46:25.113Z,8.48
2019-01-16T18:48:54.207Z,8.40
2019-01-16T18:51:29.216Z,9.08
2019-01-16T18:54:03.910Z,10.48
2019-01-16T18:56:48.076Z,7.80
2019-01-16T18:59:25.699Z,8.63
2019-01-16T19:02:00.552Z,8.58
2019-01-16T19:04:32.380Z,8.98
2019-01-16T19:07:10.470Z,8.85
2019-01-16T19:09:48.481Z,8.98
2019-01-16T19:12:17.985Z,9.55
2019-01-16T19:18:02.251Z,8.75
2019-01-16T19:20:40.542Z,9.45
2019-01-16T19:23:09.841Z,8.75
2019-01-16T19:28:55.512Z,9.00
2019-01-16T19:31:27.511Z,9.68
2019-01-16T19:33:56.661Z,9.35
2019-01-16T19:36:26.083Z,9.53
2019-01-16T19:42:21.310Z,10.28
2019-01-16T19:44:56.974Z,10.10
2019-01-16T19:47:26.168Z,9.50
2019-01-16T19:50:01.134Z,9.73
2019-01-16T19:52:46.337Z,10.48
2019-01-16T19:55:34.875Z,11.90
2019-01-16T19:58:21.761Z,13.83
2019-01-16T20:00:59.956Z,10.28
2019-01-16T20:03:29.295Z,13.03
2019-01-16T20:06:10.603Z,9.33
2019-01-16T20:08:48.117Z,10.10
2019-01-16T20:11:26.291Z,8.80
2019-01-16T20:14:14.139Z,9.63
2019-01-16T20:16:47.244Z,9.63
2019-01-16T20:19:19.270Z,9.83
2019-01-16T20:21:51.309Z,8.88
2019-01-16T20:24:29.270Z,8.75
2019-01-16T20:27:04.382Z,10.65
2019-01-16T20:29:35.620Z,8.75
2019-01-16T20:32:04.936Z,8.08
2019-01-16T20:34:37.182Z,8.70
2019-01-16T20:37:15.315Z,8.15
2019-01-16T20:40:01.238Z,8.75
2019-01-16T20:42:30.492Z,7.75
2019-01-16T20:47:56.794Z,9.03
2019-01-16T20:50:38.332Z,8.40
2019-01-16T20:53:25.289Z,7.87
2019-01-16T20:56:06.601Z,8.33
2019-01-16T20:58:35.827Z,9.15
2019-01-16T21:01:05.141Z,9.18
2019-01-16T21:03:34.937Z,8.60
2019-01-16T21:06:07.180Z,9.10
2019-01-16T21:08:41.829Z,8.35
2019-01-16T21:11:16.910Z,8.50
2019-01-16T21:13:58.073Z,9.03
2019-01-16T21:16:31.248Z,8.58
2019-01-16T21:19:18.221Z,8.65
2019-01-16T21:22:00.244Z,8.78
2019-01-16T21:24:29.452Z,9.65
2019-01-16T21:27:01.569Z,8.80
2019-01-16T21:29:36.635Z,8.60
2019-01-16T21:32:09.060Z,8.88
2019-01-16T21:34:53.424Z,9.38
2019-01-16T21:37:31.302Z,8.20
2019-01-16T21:40:07.483Z,8.73
2019-01-16T21:42:39.467Z,8.58
2019-01-16T21:45:12.148Z,11.60
2019-01-16T21:47:50.232Z,9.70
2019-01-16T21:50:38.297Z,10.03
2019-01-16T21:53:07.679Z,9.50
2019-01-16T21:55:48.577Z,10.15
2019-01-16T21:58:26.606Z,9.53
2019-01-16T22:00:58.474Z,8.85
2019-01-16T22:03:27.734Z,9.85
2019-01-16T22:05:59.971Z,9.03
2019-01-16T22:08:31.986Z,10.03
2019-01-16T22:11:16.331Z,10.15
2019-01-16T22:13:45.762Z,10.05
2019-01-16T22:16:26.926Z,10.08
2019-01-16T22:18:59.345Z,10.93
2019-01-16T22:21:46.876Z,10.90
2019-01-16T22:24:32.194Z,11.10
2019-01-16T22:27:07.496Z,10.90
2019-01-16T22:29:52.932Z,11.48
2019-01-16T22:32:24.956Z,10.72
2019-01-16T22:34:54.030Z,10.82
2019-01-16T22:37:26.071Z,10.25
2019-01-16T22:39:55.418Z,11.20
2019-01-16T22:42:30.242Z,10.70
2019-01-16T22:45:05.252Z,10.95
2019-01-16T22:47:43.071Z,11.00
2019-01-16T22:50:13.667Z,10.70
2019-01-16T22:52:43.817Z,10.48
2019-01-16T22:55:15.993Z,10.90
2019-01-16T22:57:51.059Z,11.00
2019-01-16T23:00:33.748Z,10.63
2019-01-16T23:03:19.336Z,11.85
2019-01-16T23:06:00.401Z,11.03
2019-01-16T23:08:41.305Z,12.53
2019-01-16T23:11:28.121Z,13.13
2019-01-16T23:14:02.865Z,10.58
2019-01-16T23:16:37.913Z,11.80
2019-01-16T23:19:23.809Z,12.10
2019-01-16T23:22:04.863Z,12.25
2019-01-16T23:24:34.314Z,10.55
2019-01-16T23:27:03.479Z,11.83
2019-01-16T23:29:32.734Z,11.45
2019-01-16T23:32:04.720Z,11.50
2019-01-16T23:34:36.726Z,11.65
2019-01-16T23:37:22.502Z,11.65
2019-01-16T23:40:06.605Z,12.30
2019-01-16T23:42:40.349Z,12.07
2019-01-16T23:45:10.130Z,12.37
2019-01-16T23:47:48.533Z,11.95
2019-01-16T23:50:25.503Z,11.60
2019-01-16T23:53:11.251Z,11.53
2019-01-16T23:55:58.238Z,11.75
2019-01-16T23:58:39.165Z,12.88
